sensor_id;sensor_type;location;lat;lon;timestamp;P1;durP1;ratioP1;P2;durP2;ratioP2
27818;SDS011;15192;44.854;10.046;2023-06-05T00:01:21;18.40;;;13.25;;
27818;SDS011;15192;44.854;10.046;2023-06-05T00:03:49;22.70;;;14.07;;
27818;SDS011;15192;44.854;10.046;2023-06-05T00:06:20;25.85;;;14.25;;
27818;SDS011;15192;44.854;10.046;2023-06-05T00:08:49;19.17;;;13.15;;
27818;SDS011;15192;44.854;10.046;2023-06-05T00:11:18;21.73;;;12.95;;
27818;SDS011;15192;44.854;10.046;2023-06-05T00:13:47;20.40;;;13.60;;
27818;SDS011;15192;44.854;10.046;2023-06-05T00:16:16;21.25;;;13.50;;
27818;SDS011;15192;44.854;10.046;2023-06-05T00:18:45;24.30;;;13.13;;
27818;SDS011;15192;44.854;10.046;2023-06-05T00:21:15;23.65;;;14.45;;
27818;SDS011;15192;44.854;10.046;2023-06-05T00:23:44;18.37;;;12.55;;
27818;SDS011;15192;44.854;10.046;2023-06-05T00:26:13;27.90;;;14.63;;
27818;SDS011;15192;44.854;10.046;2023-06-05T00:28:42;26.65;;;14.23;;
27818;SDS011;15192;44.854;10.046;2023-06-05T00:31:12;18.37;;;13.08;;
27818;SDS011;15192;44.854;10.046;2023-06-05T00:33:41;22.05;;;12.47;;
27818;SDS011;15192;44.854;10.046;2023-06-05T00:36:10;24.80;;;13.25;;
27818;SDS011;15192;44.854;10.046;2023-06-05T00:38:39;17.57;;;14.00;;
27818;SDS011;15192;44.854;10.046;2023-06-05T00:41:08;25.43;;;14.07;;
27818;SDS011;15192;44.854;10.046;2023-06-05T00:43:37;17.45;;;12.55;;
27818;SDS011;15192;44.854;10.046;2023-06-05T00:46:06;26.05;;;14.63;;
27818;SDS011;15192;44.854;10.046;2023-06-05T00:48:35;20.97;;;14.07;;
27818;SDS011;15192;44.854;10.046;2023-06-05T00:51:05;25.08;;;13.20;;
27818;SDS011;15192;44.854;10.046;2023-06-05T00:53:34;17.65;;;13.28;;
27818;SDS011;15192;44.854;10.046;2023-06-05T00:56:04;29.37;;;13.95;;
27818;SDS011;15192;44.854;10.046;2023-06-05T00:58:33;20.82;;;13.48;;
27818;SDS011;15192;44.854;10.046;2023-06-05T01:01:02;22.82;;;14.78;;
27818;SDS011;15192;44.854;10.046;2023-06-05T01:03:34;20.57;;;13.78;;
27818;SDS011;15192;44.854;10.046;2023-06-05T01:06:03;22.90;;;14.07;;
27818;SDS011;15192;44.854;10.046;2023-06-05T01:08:33;21.62;;;15.00;;
27818;SDS011;15192;44.854;10.046;2023-06-05T01:11:11;20.15;;;14.28;;
27818;SDS011;15192;44.854;10.046;2023-06-05T01:13:42;19.62;;;14.20;;
27818;SDS011;15192;44.854;10.046;2023-06-05T01:18:42;21.50;;;13.25;;
27818;SDS011;15192;44.854;10.046;2023-06-05T01:21:13;20.62;;;12.37;;
27818;SDS011;15192;44.854;10.046;2023-06-05T01:23:42;17.48;;;12.05;;
27818;SDS011;15192;44.854;10.046;2023-06-05T01:26:13;17.07;;;12.93;;
27818;SDS011;15192;44.854;10.046;2023-06-05T01:28:44;19.35;;;11.88;;
27818;SDS011;15192;44.854;10.046;2023-06-05T01:31:16;18.48;;;12.23;;
27818;SDS011;15192;44.854;10.046;2023-06-05T01:36:22;17.73;;;11.20;;
27818;SDS011;15192;44.854;10.046;2023-06-05T01:38:52;19.70;;;11.65;;
27818;SDS011;15192;44.854;10.046;2023-06-05T01:41:23;17.50;;;11.00;;
27818;SDS011;15192;44.854;10.046;2023-06-05T01:43:53;17.77;;;11.85;;
27818;SDS011;15192;44.854;10.046;2023-06-05T01:46:24;20.80;;;11.25;;
27818;SDS011;15192;44.854;10.046;2023-06-05T01:48:53;19.65;;;11.57;;
27818;SDS011;15192;44.854;10.046;2023-06-05T01:51:22;22.60;;;12.13;;
27818;SDS011;15192;44.854;10.046;2023-06-05T01:53:52;19.17;;;11.33;;
27818;SDS011;15192;44.854;10.046;2023-06-05T01:56:21;17.80;;;10.93;;
27818;SDS011;15192;44.854;10.046;2023-06-05T01:58:51;18.15;;;11.15;;
27818;SDS011;15192;44.854;10.046;2023-06-05T02:01:20;15.08;;;11.57;;
27818;SDS011;15192;44.854;10.046;2023-06-05T02:03:50;16.93;;;10.60;;
27818;SDS011;15192;44.854;10.046;2023-06-05T02:06:20;21.02;;;10.53;;
27818;SDS011;15192;44.854;10.046;2023-06-05T02:08:50;17.23;;;12.05;;
27818;SDS011;15192;44.854;10.046;2023-06-05T02:11:19;15.05;;;10.65;;
27818;SDS011;15192;44.854;10.046;2023-06-05T02:13:49;19.95;;;10.60;;
27818;SDS011;15192;44.854;10.046;2023-06-05T02:16:20;17.85;;;11.43;;
27818;SDS011;15192;44.854;10.046;2023-06-05T02:18:50;18.15;;;11.22;;
27818;SDS011;15192;44.854;10.046;2023-06-05T02:21:19;19.60;;;11.45;;
27818;SDS011;15192;44.854;10.046;2023-06-05T02:23:49;19.42;;;11.18;;
27818;SDS011;15192;44.854;10.046;2023-06-05T02:26:19;17.17;;;10.88;;
27818;SDS011;15192;44.854;10.046;2023-06-05T02:28:49;17.55;;;11.68;;
27818;SDS011;15192;44.854;10.046;2023-06-05T02:31:23;17.65;;;11.70;;
27818;SDS011;15192;44.854;10.046;2023-06-05T02:33:53;17.82;;;11.70;;
27818;SDS011;15192;44.854;10.046;2023-06-05T02:36:23;15.13;;;11.53;;
27818;SDS011;15192;44.854;10.046;2023-06-05T02:38:52;15.00;;;10.78;;
27818;SDS011;15192;44.854;10.046;2023-06-05T02:41:22;21.35;;;11.38;;
27818;SDS011;15192;44.854;10.046;2023-06-05T02:43:51;18.90;;;10.63;;
27818;SDS011;15192;44.854;10.046;2023-06-05T02:46:22;19.02;;;10.98;;
27818;SDS011;15192;44.854;10.046;2023-06-05T02:48:52;18.35;;;9.73;;
27818;SDS011;15192;44.854;10.046;2023-06-05T02:51:21;20.55;;;11.28;;
27818;SDS011;15192;44.854;10.046;2023-06-05T02:53:50;17.15;;;10.32;;
27818;SDS011;15192;44.854;10.046;2023-06-05T02:56:20;13.60;;;9.48;;
27818;SDS011;15192;44.854;10.046;2023-06-05T02:58:49;17.85;;;11.22;;
27818;SDS011;15192;44.854;10.046;2023-06-05T03:01:18;21.55;;;10.30;;
27818;SDS011;15192;44.854;10.046;2023-06-05T03:03:48;15.80;;;10.70;;
27818;SDS011;15192;44.854;10.046;2023-06-05T03:06:19;15.70;;;10.28;;
27818;SDS011;15192;44.854;10.046;2023-06-05T03:08:50;17.10;;;10.13;;
27818;SDS011;15192;44.854;10.046;2023-06-05T03:11:21;18.87;;;10.23;;
27818;SDS011;15192;44.854;10.046;2023-06-05T03:13:51;20.12;;;10.90;;
27818;SDS011;15192;44.854;10.046;2023-06-05T03:16:21;22.00;;;10.48;;
27818;SDS011;15192;44.854;10.046;2023-06-05T03:18:52;17.15;;;10.95;;
27818;SDS011;15192;44.854;10.046;2023-06-05T03:21:22;15.90;;;10.60;;
27818;SDS011;15192;44.854;10.046;2023-06-05T03:23:51;17.23;;;10.60;;
27818;SDS011;15192;44.854;10.046;2023-06-05T03:26:20;15.32;;;11.25;;
27818;SDS011;15192;44.854;10.046;2023-06-05T03:28:49;17.42;;;11.48;;
27818;SDS011;15192;44.854;10.046;2023-06-05T03:31:18;19.80;;;11.73;;
27818;SDS011;15192;44.854;10.046;2023-06-05T03:33:47;17.05;;;10.55;;
27818;SDS011;15192;44.854;10.046;2023-06-05T03:36:16;18.70;;;11.70;;
27818;SDS011;15192;44.854;10.046;2023-06-05T03:38:47;17.75;;;10.30;;
27818;SDS011;15192;44.854;10.046;2023-06-05T03:41:16;17.20;;;12.65;;
27818;SDS011;15192;44.854;10.046;2023-06-05T03:43:45;15.88;;;11.48;;
27818;SDS011;15192;44.854;10.046;2023-06-05T03:46:15;18.30;;;11.70;;
27818;SDS011;15192;44.854;10.046;2023-06-05T03:48:48;13.58;;;10.38;;
27818;SDS011;15192;44.854;10.046;2023-06-05T03:51:19;19.17;;;10.98;;
27818;SDS011;15192;44.854;10.046;2023-06-05T03:53:49;19.85;;;11.28;;
27818;SDS011;15192;44.854;10.046;2023-06-05T03:56:20;22.17;;;12.18;;
27818;SDS011;15192;44.854;10.046;2023-06-05T03:58:50;17.23;;;11.50;;
27818;SDS011;15192;44.854;10.046;2023-06-05T04:01:19;20.35;;;11.85;;
27818;SDS011;15192;44.854;10.046;2023-06-05T04:03:49;20.65;;;13.13;;
27818;SDS011;15192;44.854;10.046;2023-06-05T04:06:19;25.23;;;12.78;;
27818;SDS011;15192;44.854;10.046;2023-06-05T04:08:48;18.40;;;12.70;;
27818;SDS011;15192;44.854;10.046;2023-06-05T04:11:19;19.73;;;13.20;;
27818;SDS011;15192;44.854;10.046;2023-06-05T04:13:47;17.42;;;13.55;;
27818;SDS011;15192;44.854;10.046;2023-06-05T04:16:16;25.95;;;14.45;;
27818;SDS011;15192;44.854;10.046;2023-06-05T04:18:46;22.65;;;14.55;;
27818;SDS011;15192;44.854;10.046;2023-06-05T04:21:15;21.42;;;14.18;;
27818;SDS011;15192;44.854;10.046;2023-06-05T04:23:44;23.75;;;14.80;;
27818;SDS011;15192;44.854;10.046;2023-06-05T04:26:13;24.43;;;15.60;;
27818;SDS011;15192;44.854;10.046;2023-06-05T04:28:44;18.92;;;15.32;;
27818;SDS011;15192;44.854;10.046;2023-06-05T04:31:14;23.73;;;16.93;;
27818;SDS011;15192;44.854;10.046;2023-06-05T04:33:43;23.18;;;16.30;;
27818;SDS011;15192;44.854;10.046;2023-06-05T04:36:13;24.02;;;17.32;;
27818;SDS011;15192;44.854;10.046;2023-06-05T04:38:42;26.62;;;16.82;;
27818;SDS011;15192;44.854;10.046;2023-06-05T04:41:12;23.62;;;16.25;;
27818;SDS011;15192;44.854;10.046;2023-06-05T04:43:41;26.93;;;16.90;;
27818;SDS011;15192;44.854;10.046;2023-06-05T04:46:11;25.68;;;18.17;;
27818;SDS011;15192;44.854;10.046;2023-06-05T04:48:40;21.45;;;17.17;;
27818;SDS011;15192;44.854;10.046;2023-06-05T04:51:10;31.65;;;17.52;;
27818;SDS011;15192;44.854;10.046;2023-06-05T04:53:39;24.72;;;17.17;;
27818;SDS011;15192;44.854;10.046;2023-06-05T04:56:09;24.95;;;18.37;;
27818;SDS011;15192;44.854;10.046;2023-06-05T04:58:38;27.32;;;17.25;;
27818;SDS011;15192;44.854;10.046;2023-06-05T05:01:07;30.15;;;18.32;;
27818;SDS011;15192;44.854;10.046;2023-06-05T05:03:38;30.90;;;19.65;;
27818;SDS011;15192;44.854;10.046;2023-06-05T05:06:09;28.47;;;19.73;;
27818;SDS011;15192;44.854;10.046;2023-06-05T05:08:38;31.80;;;19.05;;
27818;SDS011;15192;44.854;10.046;2023-06-05T05:11:07;31.90;;;18.52;;
27818;SDS011;15192;44.854;10.046;2023-06-05T05:13:36;33.83;;;20.45;;
27818;SDS011;15192;44.854;10.046;2023-06-05T05:16:05;27.58;;;19.90;;
27818;SDS011;15192;44.854;10.046;2023-06-05T05:18:35;26.27;;;19.05;;
27818;SDS011;15192;44.854;10.046;2023-06-05T05:21:06;29.10;;;18.60;;
27818;SDS011;15192;44.854;10.046;2023-06-05T05:23:35;30.77;;;19.80;;
27818;SDS011;15192;44.854;10.046;2023-06-05T05:26:06;31.68;;;20.62;;
27818;SDS011;15192;44.854;10.046;2023-06-05T05:28:35;24.98;;;18.50;;
27818;SDS011;15192;44.854;10.046;2023-06-05T05:31:05;28.87;;;18.05;;
27818;SDS011;15192;44.854;10.046;2023-06-05T05:33:34;37.15;;;21.00;;
27818;SDS011;15192;44.854;10.046;2023-06-05T05:36:04;27.80;;;18.00;;
27818;SDS011;15192;44.854;10.046;2023-06-05T05:38:34;25.12;;;19.00;;
27818;SDS011;15192;44.854;10.046;2023-06-05T05:41:03;25.50;;;18.48;;
27818;SDS011;15192;44.854;10.046;2023-06-05T05:43:32;29.10;;;19.92;;
27818;SDS011;15192;44.854;10.046;2023-06-05T05:46:00;30.88;;;19.60;;
27818;SDS011;15192;44.854;10.046;2023-06-05T05:48:30;23.65;;;18.48;;
27818;SDS011;15192;44.854;10.046;2023-06-05T05:50:59;23.25;;;17.75;;
27818;SDS011;15192;44.854;10.046;2023-06-05T05:53:28;29.82;;;18.92;;
27818;SDS011;15192;44.854;10.046;2023-06-05T05:55:57;25.97;;;18.10;;
27818;SDS011;15192;44.854;10.046;2023-06-05T05:58:27;30.00;;;18.15;;
27818;SDS011;15192;44.854;10.046;2023-06-05T06:00:56;29.48;;;19.87;;
27818;SDS011;15192;44.854;10.046;2023-06-05T06:03:26;25.85;;;18.80;;
27818;SDS011;15192;44.854;10.046;2023-06-05T06:05:56;24.90;;;18.32;;
27818;SDS011;15192;44.854;10.046;2023-06-05T06:08:25;28.25;;;18.20;;
27818;SDS011;15192;44.854;10.046;2023-06-05T06:10:54;23.07;;;17.37;;
27818;SDS011;15192;44.854;10.046;2023-06-05T06:13:23;21.85;;;17.57;;
27818;SDS011;15192;44.854;10.046;2023-06-05T06:15:52;27.95;;;17.57;;
27818;SDS011;15192;44.854;10.046;2023-06-05T06:18:21;25.15;;;18.37;;
27818;SDS011;15192;44.854;10.046;2023-06-05T06:20:50;24.35;;;18.10;;
27818;SDS011;15192;44.854;10.046;2023-06-05T06:23:20;28.02;;;18.45;;
27818;SDS011;15192;44.854;10.046;2023-06-05T06:25:49;24.35;;;18.10;;
27818;SDS011;15192;44.854;10.046;2023-06-05T06:28:18;27.52;;;19.90;;
27818;SDS011;15192;44.854;10.046;2023-06-05T06:30:47;29.52;;;19.67;;
27818;SDS011;15192;44.854;10.046;2023-06-05T06:33:17;25.97;;;18.98;;
27818;SDS011;15192;44.854;10.046;2023-06-05T06:35:46;23.87;;;18.25;;
27818;SDS011;15192;44.854;10.046;2023-06-05T06:38:14;25.50;;;17.75;;
27818;SDS011;15192;44.854;10.046;2023-06-05T06:40:43;27.15;;;18.92;;
27818;SDS011;15192;44.854;10.046;2023-06-05T06:43:12;23.90;;;18.42;;
27818;SDS011;15192;44.854;10.046;2023-06-05T06:45:43;25.10;;;17.77;;
27818;SDS011;15192;44.854;10.046;2023-06-05T06:48:13;34.60;;;19.77;;
27818;SDS011;15192;44.854;10.046;2023-06-05T06:50:44;24.53;;;18.57;;
27818;SDS011;15192;44.854;10.046;2023-06-05T06:53:12;23.83;;;18.02;;
27818;SDS011;15192;44.854;10.046;2023-06-05T06:55:42;20.27;;;14.70;;
27818;SDS011;15192;44.854;10.046;2023-06-05T06:58:11;19.80;;;14.65;;
27818;SDS011;15192;44.854;10.046;2023-06-05T07:00:40;15.88;;;12.13;;
27818;SDS011;15192;44.854;10.046;2023-06-05T07:03:09;14.65;;;11.12;;
27818;SDS011;15192;44.854;10.046;2023-06-05T07:05:38;17.52;;;13.85;;
27818;SDS011;15192;44.854;10.046;2023-06-05T07:08:07;16.57;;;12.95;;
27818;SDS011;15192;44.854;10.046;2023-06-05T07:10:36;18.67;;;12.37;;
27818;SDS011;15192;44.854;10.046;2023-06-05T07:13:07;16.25;;;12.82;;
27818;SDS011;15192;44.854;10.046;2023-06-05T07:15:36;18.77;;;13.55;;
27818;SDS011;15192;44.854;10.046;2023-06-05T07:18:05;17.12;;;12.63;;
27818;SDS011;15192;44.854;10.046;2023-06-05T07:20:34;17.95;;;13.18;;
27818;SDS011;15192;44.854;10.046;2023-06-05T07:23:04;19.27;;;12.50;;
27818;SDS011;15192;44.854;10.046;2023-06-05T07:25:32;18.40;;;13.15;;
27818;SDS011;15192;44.854;10.046;2023-06-05T07:28:01;16.70;;;13.00;;
27818;SDS011;15192;44.854;10.046;2023-06-05T07:30:30;19.45;;;13.10;;
27818;SDS011;15192;44.854;10.046;2023-06-05T07:32:59;16.10;;;12.63;;
27818;SDS011;15192;44.854;10.046;2023-06-05T07:35:28;15.75;;;11.33;;
27818;SDS011;15192;44.854;10.046;2023-06-05T07:37:57;17.37;;;12.65;;
27818;SDS011;15192;44.854;10.046;2023-06-05T07:40:26;15.80;;;11.53;;
27818;SDS011;15192;44.854;10.046;2023-06-05T07:42:55;16.05;;;11.95;;
27818;SDS011;15192;44.854;10.046;2023-06-05T07:45:24;15.40;;;12.28;;
27818;SDS011;15192;44.854;10.046;2023-06-05T07:47:53;15.70;;;11.83;;
27818;SDS011;15192;44.854;10.046;2023-06-05T07:50:21;13.22;;;11.68;;
27818;SDS011;15192;44.854;10.046;2023-06-05T07:52:50;13.68;;;10.25;;
27818;SDS011;15192;44.854;10.046;2023-06-05T07:55:19;13.22;;;10.28;;
27818;SDS011;15192;44.854;10.046;2023-06-05T07:57:48;12.85;;;10.30;;
27818;SDS011;15192;44.854;10.046;2023-06-05T08:00:19;15.55;;;10.85;;
27818;SDS011;15192;44.854;10.046;2023-06-05T08:02:48;11.55;;;9.33;;
27818;SDS011;15192;44.854;10.046;2023-06-05T08:05:18;12.80;;;9.50;;
27818;SDS011;15192;44.854;10.046;2023-06-05T08:07:47;11.75;;;9.93;;
27818;SDS011;15192;44.854;10.046;2023-06-05T08:10:16;13.05;;;9.75;;
27818;SDS011;15192;44.854;10.046;2023-06-05T08:12:45;11.75;;;9.15;;
27818;SDS011;15192;44.854;10.046;2023-06-05T08:15:14;11.38;;;8.80;;
27818;SDS011;15192;44.854;10.046;2023-06-05T08:17:43;10.30;;;7.40;;
27818;SDS011;15192;44.854;10.046;2023-06-05T08:20:12;10.82;;;7.67;;
27818;SDS011;15192;44.854;10.046;2023-06-05T08:22:43;10.82;;;8.00;;
27818;SDS011;15192;44.854;10.046;2023-06-05T08:25:11;9.88;;;6.47;;
27818;SDS011;15192;44.854;10.046;2023-06-05T08:27:40;8.83;;;7.20;;
27818;SDS011;15192;44.854;10.046;2023-06-05T08:30:09;7.87;;;6.35;;
27818;SDS011;15192;44.854;10.046;2023-06-05T08:32:39;10.50;;;6.58;;
27818;SDS011;15192;44.854;10.046;2023-06-05T08:35:08;9.53;;;7.05;;
27818;SDS011;15192;44.854;10.046;2023-06-05T08:37:39;10.97;;;8.27;;
27818;SDS011;15192;44.854;10.046;2023-06-05T08:40:08;11.12;;;8.45;;
27818;SDS011;15192;44.854;10.046;2023-06-05T08:42:39;9.75;;;7.85;;
27818;SDS011;15192;44.854;10.046;2023-06-05T08:45:08;10.95;;;8.10;;
27818;SDS011;15192;44.854;10.046;2023-06-05T08:47:38;11.05;;;8.05;;
27818;SDS011;15192;44.854;10.046;2023-06-05T08:50:08;10.93;;;8.23;;
27818;SDS011;15192;44.854;10.046;2023-06-05T08:52:38;9.08;;;7.12;;
27818;SDS011;15192;44.854;10.046;2023-06-05T08:55:09;9.20;;;7.33;;
27818;SDS011;15192;44.854;10.046;2023-06-05T08:57:39;10.03;;;7.95;;
27818;SDS011;15192;44.854;10.046;2023-06-05T09:00:09;9.68;;;7.40;;
27818;SDS011;15192;44.854;10.046;2023-06-05T09:02:42;10.13;;;8.40;;
27818;SDS011;15192;44.854;10.046;2023-06-05T09:05:16;8.63;;;7.37;;
27818;SDS011;15192;44.854;10.046;2023-06-05T09:07:45;10.78;;;8.73;;
27818;SDS011;15192;44.854;10.046;2023-06-05T09:10:21;10.25;;;8.48;;
27818;SDS011;15192;44.854;10.046;2023-06-05T09:12:58;11.30;;;8.70;;
27818;SDS011;15192;44.854;10.046;2023-06-05T09:15:29;13.68;;;9.58;;
27818;SDS011;15192;44.854;10.046;2023-06-05T09:18:10;12.68;;;9.38;;
27818;SDS011;15192;44.854;10.046;2023-06-05T09:20:43;10.58;;;7.92;;
27818;SDS011;15192;44.854;10.046;2023-06-05T09:23:26;9.60;;;7.42;;
27818;SDS011;15192;44.854;10.046;2023-06-05T09:25:57;10.05;;;7.15;;
27818;SDS011;15192;44.854;10.046;2023-06-05T09:28:27;9.63;;;7.72;;
27818;SDS011;15192;44.854;10.046;2023-06-05T09:31:00;9.33;;;7.62;;
27818;SDS011;15192;44.854;10.046;2023-06-05T09:33:31;12.00;;;7.53;;
27818;SDS011;15192;44.854;10.046;2023-06-05T09:36:05;12.55;;;7.67;;
27818;SDS011;15192;44.854;10.046;2023-06-05T09:38:37;8.88;;;6.60;;
27818;SDS011;15192;44.854;10.046;2023-06-05T09:41:07;7.13;;;5.50;;
27818;SDS011;15192;44.854;10.046;2023-06-05T09:43:42;8.30;;;5.30;;
27818;SDS011;15192;44.854;10.046;2023-06-05T09:46:12;8.40;;;6.00;;
27818;SDS011;15192;44.854;10.046;2023-06-05T09:48:43;8.58;;;6.33;;
27818;SDS011;15192;44.854;10.046;2023-06-05T09:53:48;8.53;;;5.75;;
27818;SDS011;15192;44.854;10.046;2023-06-05T09:56:18;6.67;;;4.30;;
27818;SDS011;15192;44.854;10.046;2023-06-05T09:58:55;6.33;;;5.67;;
27818;SDS011;15192;44.854;10.046;2023-06-05T10:01:21;16.20;;;11.20;;
27818;SDS011;15192;44.854;10.046;2023-06-05T10:03:53;4.97;;;3.77;;
27818;SDS011;15192;44.854;10.046;2023-06-05T10:06:29;6.67;;;4.95;;
27818;SDS011;15192;44.854;10.046;2023-06-05T10:09:00;7.35;;;4.80;;
27818;SDS011;15192;44.854;10.046;2023-06-05T10:11:30;6.20;;;5.00;;
27818;SDS011;15192;44.854;10.046;2023-06-05T10:13:59;8.90;;;5.67;;
27818;SDS011;15192;44.854;10.046;2023-06-05T10:16:30;10.03;;;7.55;;
27818;SDS011;15192;44.854;10.046;2023-06-05T10:19:00;9.93;;;8.05;;
27818;SDS011;15192;44.854;10.046;2023-06-05T10:21:30;9.60;;;7.10;;
27818;SDS011;15192;44.854;10.046;2023-06-05T10:24:05;10.13;;;6.78;;
27818;SDS011;15192;44.854;10.046;2023-06-05T10:32:01;7.47;;;5.08;;
27818;SDS011;15192;44.854;10.046;2023-06-05T10:37:04;7.95;;;6.70;;
27818;SDS011;15192;44.854;10.046;2023-06-05T10:42:02;7.65;;;6.05;;
27818;SDS011;15192;44.854;10.046;2023-06-05T10:44:41;8.35;;;4.87;;
27818;SDS011;15192;44.854;10.046;2023-06-05T10:52:49;6.87;;;4.87;;
27818;SDS011;15192;44.854;10.046;2023-06-05T10:55:20;5.60;;;4.72;;
27818;SDS011;15192;44.854;10.046;2023-06-05T11:01:15;7.37;;;5.58;;
27818;SDS011;15192;44.854;10.046;2023-06-05T11:03:52;6.92;;;4.83;;
27818;SDS011;15192;44.854;10.046;2023-06-05T11:06:25;5.55;;;4.78;;
27818;SDS011;15192;44.854;10.046;2023-06-05T11:09:10;5.55;;;4.58;;
27818;SDS011;15192;44.854;10.046;2023-06-05T11:14:43;7.70;;;5.30;;
27818;SDS011;15192;44.854;10.046;2023-06-05T11:17:28;5.83;;;4.92;;
27818;SDS011;15192;44.854;10.046;2023-06-05T11:19:59;7.83;;;5.45;;
27818;SDS011;15192;44.854;10.046;2023-06-05T11:22:31;8.25;;;5.37;;
27818;SDS011;15192;44.854;10.046;2023-06-05T11:27:49;6.20;;;4.95;;
27818;SDS011;15192;44.854;10.046;2023-06-05T11:32:49;7.17;;;5.83;;
27818;SDS011;15192;44.854;10.046;2023-06-05T11:35:23;6.83;;;6.08;;
27818;SDS011;15192;44.854;10.046;2023-06-05T11:38:12;5.60;;;4.92;;
27818;SDS011;15192;44.854;10.046;2023-06-05T11:40:45;6.90;;;6.20;;
27818;SDS011;15192;44.854;10.046;2023-06-05T11:43:15;8.85;;;6.58;;
27818;SDS011;15192;44.854;10.046;2023-06-05T11:45:54;7.37;;;6.45;;
27818;SDS011;15192;44.854;10.046;2023-06-05T11:48:24;6.37;;;5.78;;
27818;SDS011;15192;44.854;10.046;2023-06-05T11:51:03;8.68;;;7.28;;
27818;SDS011;15192;44.854;10.046;2023-06-05T11:53:35;7.35;;;6.50;;
27818;SDS011;15192;44.854;10.046;2023-06-05T11:56:11;8.03;;;6.58;;
27818;SDS011;15192;44.854;10.046;2023-06-05T11:58:44;9.43;;;6.97;;
27818;SDS011;15192;44.854;10.046;2023-06-05T12:01:16;10.55;;;7.35;;
27818;SDS011;15192;44.854;10.046;2023-06-05T12:03:49;9.18;;;7.58;;
27818;SDS011;15192;44.854;10.046;2023-06-05T12:06:19;9.58;;;7.72;;
27818;SDS011;15192;44.854;10.046;2023-06-05T12:08:49;12.28;;;7.80;;
27818;SDS011;15192;44.854;10.046;2023-06-05T12:11:21;11.00;;;7.92;;
27818;SDS011;15192;44.854;10.046;2023-06-05T12:13:57;8.88;;;7.40;;
27818;SDS011;15192;44.854;10.046;2023-06-05T12:19:02;8.48;;;7.08;;
27818;SDS011;15192;44.854;10.046;2023-06-05T12:21:32;9.85;;;7.87;;
27818;SDS011;15192;44.854;10.046;2023-06-05T12:24:08;10.32;;;7.15;;
27818;SDS011;15192;44.854;10.046;2023-06-05T12:27:29;9.45;;;7.55;;
27818;SDS011;15192;44.854;10.046;2023-06-05T12:29:17;10.30;;;6.95;;
27818;SDS011;15192;44.854;10.046;2023-06-05T12:31:47;7.22;;;6.35;;
27818;SDS011;15192;44.854;10.046;2023-06-05T12:34:16;9.95;;;6.58;;
27818;SDS011;15192;44.854;10.046;2023-06-05T12:36:45;8.88;;;7.15;;
27818;SDS011;15192;44.854;10.046;2023-06-05T12:39:15;8.63;;;7.30;;
27818;SDS011;15192;44.854;10.046;2023-06-05T12:41:44;9.13;;;6.60;;
27818;SDS011;15192;44.854;10.046;2023-06-05T12:44:13;11.22;;;7.12;;
27818;SDS011;15192;44.854;10.046;2023-06-05T12:46:42;10.82;;;7.72;;
27818;SDS011;15192;44.854;10.046;2023-06-05T12:49:11;8.30;;;7.20;;
27818;SDS011;15192;44.854;10.046;2023-06-05T12:51:40;8.10;;;6.85;;
27818;SDS011;15192;44.854;10.046;2023-06-05T12:54:10;9.95;;;6.65;;
27818;SDS011;15192;44.854;10.046;2023-06-05T12:56:41;7.83;;;6.15;;
27818;SDS011;15192;44.854;10.046;2023-06-05T12:59:11;9.65;;;6.28;;
27818;SDS011;15192;44.854;10.046;2023-06-05T13:01:40;7.97;;;6.40;;
27818;SDS011;15192;44.854;10.046;2023-06-05T13:04:09;8.93;;;6.03;;
27818;SDS011;15192;44.854;10.046;2023-06-05T13:06:38;5.72;;;4.78;;
27818;SDS011;15192;44.854;10.046;2023-06-05T13:09:08;6.65;;;4.65;;
27818;SDS011;15192;44.854;10.046;2023-06-05T13:11:37;5.00;;;4.42;;
27818;SDS011;15192;44.854;10.046;2023-06-05T13:14:06;5.60;;;4.75;;
27818;SDS011;15192;44.854;10.046;2023-06-05T13:16:35;6.45;;;4.30;;
27818;SDS011;15192;44.854;10.046;2023-06-05T13:19:04;5.25;;;4.75;;
27818;SDS011;15192;44.854;10.046;2023-06-05T13:21:33;5.60;;;5.00;;
27818;SDS011;15192;44.854;10.046;2023-06-05T13:24:02;5.70;;;4.60;;
27818;SDS011;15192;44.854;10.046;2023-06-05T13:26:31;6.65;;;5.00;;
27818;SDS011;15192;44.854;10.046;2023-06-05T13:29:00;6.10;;;4.90;;
27818;SDS011;15192;44.854;10.046;2023-06-05T13:31:29;8.20;;;4.78;;
27818;SDS011;15192;44.854;10.046;2023-06-05T13:33:58;6.00;;;3.75;;
27818;SDS011;15192;44.854;10.046;2023-06-05T13:36:27;4.58;;;3.72;;
27818;SDS011;15192;44.854;10.046;2023-06-05T13:38:56;7.20;;;4.42;;
27818;SDS011;15192;44.854;10.046;2023-06-05T13:41:25;7.00;;;4.10;;
27818;SDS011;15192;44.854;10.046;2023-06-05T13:43:54;7.03;;;4.00;;
27818;SDS011;15192;44.854;10.046;2023-06-05T13:46:25;10.63;;;3.47;;
27818;SDS011;15192;44.854;10.046;2023-06-05T13:48:53;5.05;;;4.00;;
27818;SDS011;15192;44.854;10.046;2023-06-05T13:51:24;4.80;;;4.00;;
27818;SDS011;15192;44.854;10.046;2023-06-05T13:53:53;4.80;;;3.20;;
27818;SDS011;15192;44.854;10.046;2023-06-05T13:56:24;4.85;;;3.40;;
27818;SDS011;15192;44.854;10.046;2023-06-05T13:58:53;6.33;;;4.28;;
27818;SDS011;15192;44.854;10.046;2023-06-05T14:01:21;5.35;;;4.25;;
27818;SDS011;15192;44.854;10.046;2023-06-05T14:03:51;4.35;;;3.80;;
27818;SDS011;15192;44.854;10.046;2023-06-05T14:06:20;5.75;;;4.17;;
27818;SDS011;15192;44.854;10.046;2023-06-05T14:08:48;5.78;;;4.50;;
27818;SDS011;15192;44.854;10.046;2023-06-05T14:11:17;6.92;;;4.17;;
27818;SDS011;15192;44.854;10.046;2023-06-05T14:13:46;7.60;;;4.15;;
27818;SDS011;15192;44.854;10.046;2023-06-05T14:16:15;7.05;;;3.80;;
27818;SDS011;15192;44.854;10.046;2023-06-05T14:18:44;5.65;;;4.35;;
27818;SDS011;15192;44.854;10.046;2023-06-05T14:21:13;6.08;;;4.70;;
27818;SDS011;15192;44.854;10.046;2023-06-05T14:23:42;6.08;;;4.58;;
27818;SDS011;15192;44.854;10.046;2023-06-05T14:26:11;5.05;;;4.55;;
27818;SDS011;15192;44.854;10.046;2023-06-05T14:28:39;6.42;;;4.83;;
27818;SDS011;15192;44.854;10.046;2023-06-05T14:31:08;5.83;;;4.75;;
27818;SDS011;15192;44.854;10.046;2023-06-05T14:33:37;5.85;;;4.03;;
27818;SDS011;15192;44.854;10.046;2023-06-05T14:36:06;5.85;;;5.00;;
27818;SDS011;15192;44.854;10.046;2023-06-05T14:38:35;6.35;;;4.47;;
27818;SDS011;15192;44.854;10.046;2023-06-05T14:41:04;6.42;;;4.90;;
27818;SDS011;15192;44.854;10.046;2023-06-05T14:43:33;7.35;;;4.67;;
27818;SDS011;15192;44.854;10.046;2023-06-05T14:46:03;5.33;;;4.25;;
27818;SDS011;15192;44.854;10.046;2023-06-05T14:48:32;4.87;;;3.90;;
27818;SDS011;15192;44.854;10.046;2023-06-05T14:51:01;7.15;;;4.85;;
27818;SDS011;15192;44.854;10.046;2023-06-05T14:53:29;9.48;;;5.72;;
27818;SDS011;15192;44.854;10.046;2023-06-05T14:55:59;8.18;;;5.28;;
27818;SDS011;15192;44.854;10.046;2023-06-05T14:58:28;9.18;;;6.03;;
27818;SDS011;15192;44.854;10.046;2023-06-05T15:00:57;7.25;;;6.20;;
27818;SDS011;15192;44.854;10.046;2023-06-05T15:03:26;7.60;;;5.65;;
27818;SDS011;15192;44.854;10.046;2023-06-05T15:05:55;9.28;;;5.90;;
27818;SDS011;15192;44.854;10.046;2023-06-05T15:08:24;8.38;;;6.72;;
27818;SDS011;15192;44.854;10.046;2023-06-05T15:10:52;7.08;;;6.25;;
27818;SDS011;15192;44.854;10.046;2023-06-05T15:13:21;9.73;;;6.05;;